UAE953 OMDB-OLBA
Flight info
| Callsign | UAE953 |
|---|---|
| Flight time | N/A |
| Altitude | 34000 |
| Route | SENPA N571 ALPOB L768 VATIM L550 NOVPA J981 DATOK L550 STEPA L78 DESPO M31 KUKLA |
| Aircraft | B77W/H-SDE1E2E3FGHIJ2J3J4J5M1RWXY/LB1D1 |
Departure
| Time | 2026-04-25 14:29 |
|---|---|
| Airport | Dubai International Airport (OMDB) |
Arrival
| Time | N/A |
|---|---|
| Airport | Beirut Rafic Hariri International Airport (OLBA) |
| Time | Latitude | Longitude | Altitude | Speed | Heading |
|---|---|---|---|---|---|
| 2026-04-25 14:07 | 25.24282 | 55.37100 | 49 ft | 0 kts | 31° |
| 2026-04-25 14:17 | 25.24278 | 55.37098 | 49 ft | 2 kts | 31° |
| 2026-04-25 14:17 | 25.24265 | 55.37089 | 49 ft | 2 kts | 31° |
| 2026-04-25 14:18 | 25.24252 | 55.37080 | 49 ft | 2 kts | 31° |
| 2026-04-25 14:18 | 25.24239 | 55.37072 | 49 ft | 2 kts | 31° |
| 2026-04-25 14:18 | 25.24226 | 55.37063 | 50 ft | 2 kts | 29° |
| 2026-04-25 14:18 | 25.24213 | 55.37055 | 50 ft | 2 kts | 29° |
| 2026-04-25 14:19 | 25.24204 | 55.37045 | 51 ft | 2 kts | 80° |
| 2026-04-25 14:19 | 25.24206 | 55.37032 | 51 ft | 1 kts | 123° |
| 2026-04-25 14:19 | 25.24208 | 55.37028 | 51 ft | 0 kts | 122° |
| 2026-04-25 14:23 | 25.24206 | 55.37033 | 51 ft | 3 kts | 122° |
| 2026-04-25 14:23 | 25.24180 | 55.37080 | 50 ft | 11 kts | 121° |
| 2026-04-25 14:23 | 25.24127 | 55.37177 | 49 ft | 17 kts | 121° |
| 2026-04-25 14:24 | 25.24057 | 55.37302 | 49 ft | 19 kts | 121° |
| 2026-04-25 14:24 | 25.23985 | 55.37436 | 50 ft | 20 kts | 112° |
| 2026-04-25 14:24 | 25.24003 | 55.37585 | 51 ft | 20 kts | 49° |
| 2026-04-25 14:24 | 25.24122 | 55.37676 | 50 ft | 20 kts | 31° |
| 2026-04-25 14:25 | 25.24241 | 55.37755 | 51 ft | 19 kts | 31° |
| 2026-04-25 14:25 | 25.24331 | 55.37817 | 57 ft | 9 kts | 33° |
| 2026-04-25 14:25 | 25.24340 | 55.37823 | 58 ft | 0 kts | 34° |
| 2026-04-25 14:26 | 25.24340 | 55.37824 | 58 ft | 0 kts | 34° |
| 2026-04-25 14:27 | 25.24347 | 55.37829 | 58 ft | 3 kts | 34° |
| 2026-04-25 14:27 | 25.24394 | 55.37864 | 58 ft | 11 kts | 34° |
| 2026-04-25 14:27 | 25.24483 | 55.37931 | 58 ft | 19 kts | 34° |
| 2026-04-25 14:27 | 25.24606 | 55.38023 | 58 ft | 22 kts | 33° |
| 2026-04-25 14:28 | 25.24738 | 55.38097 | 58 ft | 17 kts | 359° |
| 2026-04-25 14:28 | 25.24786 | 55.38063 | 58 ft | 0 kts | 302° |
| 2026-04-25 14:28 | 25.24790 | 55.38055 | 58 ft | 6 kts | 302° |
| 2026-04-25 14:28 | 25.24970 | 55.37734 | 55 ft | 98 kts | 301° |
| 2026-04-25 14:29 | 25.25487 | 55.36801 | 113 ft | 180 kts | 302° |
| 2026-04-25 14:29 | 25.26166 | 55.35594 | 1082 ft | 194 kts | 302° |
| 2026-04-25 14:29 | 25.26847 | 55.34374 | 2080 ft | 194 kts | 302° |
| 2026-04-25 14:29 | 25.27580 | 55.33047 | 2720 ft | 211 kts | 300° |
| 2026-04-25 14:30 | 25.28302 | 55.31725 | 3372 ft | 226 kts | 301° |
| 2026-04-25 14:30 | 25.29648 | 55.28377 | 4785 ft | 260 kts | 278° |
| 2026-04-25 14:30 | 25.29823 | 55.26351 | 5737 ft | 268 kts | 275° |
| 2026-04-25 14:31 | 25.29971 | 55.24307 | 6826 ft | 270 kts | 275° |
| 2026-04-25 14:31 | 25.30130 | 55.22216 | 7790 ft | 276 kts | 274° |
| 2026-04-25 14:31 | 25.30283 | 55.20129 | 8821 ft | 278 kts | 272° |
| 2026-04-25 14:31 | 25.30394 | 55.17963 | 9798 ft | 284 kts | 272° |
| 2026-04-25 14:32 | 25.30498 | 55.15765 | 10620 ft | 295 kts | 271° |
| 2026-04-25 14:32 | 25.30607 | 55.13454 | 11365 ft | 313 kts | 271° |
| 2026-04-25 14:32 | 25.30723 | 55.10972 | 12026 ft | 331 kts | 271° |
| 2026-04-25 14:32 | 25.30843 | 55.08394 | 12698 ft | 347 kts | 271° |
| 2026-04-25 14:33 | 25.30970 | 55.05671 | 13322 ft | 364 kts | 271° |
| 2026-04-25 14:33 | 25.31104 | 55.02794 | 14052 ft | 378 kts | 271° |
| 2026-04-25 14:33 | 25.31240 | 54.99857 | 14740 ft | 391 kts | 271° |
| 2026-04-25 14:33 | 25.31381 | 54.96812 | 15611 ft | 399 kts | 271° |
| 2026-04-25 14:34 | 25.31521 | 54.93774 | 16577 ft | 402 kts | 271° |
| 2026-04-25 14:34 | 25.31664 | 54.90689 | 17597 ft | 404 kts | 271° |
| 2026-04-25 14:34 | 25.31806 | 54.87578 | 18518 ft | 408 kts | 271° |
| 2026-04-25 14:34 | 25.31950 | 54.84429 | 19374 ft | 413 kts | 271° |
| 2026-04-25 14:35 | 25.32094 | 54.81257 | 20263 ft | 416 kts | 271° |
| 2026-04-25 14:35 | 25.32238 | 54.78064 | 21163 ft | 419 kts | 271° |
| 2026-04-25 14:35 | 25.32383 | 54.74843 | 22014 ft | 423 kts | 271° |
| 2026-04-25 14:35 | 25.32530 | 54.71566 | 22756 ft | 429 kts | 271° |
| 2026-04-25 14:36 | 25.32678 | 54.68236 | 23570 ft | 432 kts | 272° |
| 2026-04-25 14:36 | 25.32826 | 54.64909 | 24383 ft | 435 kts | 272° |